sensor_id;sensor_type;location;lat;lon;timestamp;temperature;humidity
46366;DHT22;32073;49.166;8.076;2022-07-29T00:01:50;25.70;36.00
46366;DHT22;32073;49.166;8.076;2022-07-29T00:05:52;25.50;35.80
46366;DHT22;32073;49.166;8.076;2022-07-29T00:09:53;25.60;36.10
46366;DHT22;32073;49.166;8.076;2022-07-29T00:13:54;25.50;36.20
46366;DHT22;32073;49.166;8.076;2022-07-29T00:17:54;25.50;36.30
46366;DHT22;32073;49.166;8.076;2022-07-29T00:21:55;25.40;36.30
46366;DHT22;32073;49.166;8.076;2022-07-29T00:25:56;25.40;36.50
46366;DHT22;32073;49.166;8.076;2022-07-29T00:29:56;25.30;36.60
46366;DHT22;32073;49.166;8.076;2022-07-29T00:33:57;25.30;36.80
46366;DHT22;32073;49.166;8.076;2022-07-29T00:37:58;25.20;36.70
46366;DHT22;32073;49.166;8.076;2022-07-29T00:41:58;25.20;36.90
46366;DHT22;32073;49.166;8.076;2022-07-29T00:46:03;25.20;37.10
46366;DHT22;32073;49.166;8.076;2022-07-29T00:50:05;25.20;37.50
46366;DHT22;32073;49.166;8.076;2022-07-29T00:54:07;25.20;37.50
46366;DHT22;32073;49.166;8.076;2022-07-29T00:58:08;25.20;37.70
46366;DHT22;32073;49.166;8.076;2022-07-29T01:02:09;25.20;37.60
46366;DHT22;32073;49.166;8.076;2022-07-29T01:06:10;25.20;37.50
46366;DHT22;32073;49.166;8.076;2022-07-29T01:10:12;25.10;37.50
46366;DHT22;32073;49.166;8.076;2022-07-29T01:14:14;25.10;37.60
46366;DHT22;32073;49.166;8.076;2022-07-29T01:18:22;25.00;37.70
46366;DHT22;32073;49.166;8.076;2022-07-29T01:26:59;24.90;38.00
46366;DHT22;32073;49.166;8.076;2022-07-29T01:35:45;24.80;38.60
46366;DHT22;32073;49.166;8.076;2022-07-29T01:39:47;24.70;38.40
46366;DHT22;32073;49.166;8.076;2022-07-29T01:43:56;24.70;38.40
46366;DHT22;32073;49.166;8.076;2022-07-29T01:48:00;24.60;38.40
46366;DHT22;32073;49.166;8.076;2022-07-29T01:52:08;24.60;37.70
46366;DHT22;32073;49.166;8.076;2022-07-29T01:56:15;24.50;38.10
46366;DHT22;32073;49.166;8.076;2022-07-29T02:00:17;24.60;38.20
46366;DHT22;32073;49.166;8.076;2022-07-29T02:04:19;24.40;38.20
46366;DHT22;32073;49.166;8.076;2022-07-29T02:08:21;24.40;38.10
46366;DHT22;32073;49.166;8.076;2022-07-29T02:12:23;24.30;38.20
46366;DHT22;32073;49.166;8.076;2022-07-29T02:16:27;24.40;38.30
46366;DHT22;32073;49.166;8.076;2022-07-29T02:20:30;24.30;38.30
46366;DHT22;32073;49.166;8.076;2022-07-29T02:24:31;24.30;38.40
46366;DHT22;32073;49.166;8.076;2022-07-29T02:28:34;24.20;39.00
46366;DHT22;32073;49.166;8.076;2022-07-29T02:32:36;24.20;38.50
46366;DHT22;32073;49.166;8.076;2022-07-29T02:36:39;24.10;38.40
46366;DHT22;32073;49.166;8.076;2022-07-29T02:40:42;24.10;38.60
46366;DHT22;32073;49.166;8.076;2022-07-29T02:44:43;24.00;38.70
46366;DHT22;32073;49.166;8.076;2022-07-29T02:48:51;24.10;38.80
46366;DHT22;32073;49.166;8.076;2022-07-29T02:53:11;24.10;39.00
46366;DHT22;32073;49.166;8.076;2022-07-29T02:57:21;24.10;39.00
46366;DHT22;32073;49.166;8.076;2022-07-29T03:01:27;24.00;39.00
46366;DHT22;32073;49.166;8.076;2022-07-29T03:05:31;23.90;39.00
46366;DHT22;32073;49.166;8.076;2022-07-29T03:09:32;23.90;39.00
46366;DHT22;32073;49.166;8.076;2022-07-29T03:13:35;23.90;39.10
46366;DHT22;32073;49.166;8.076;2022-07-29T03:17:37;23.80;39.20
46366;DHT22;32073;49.166;8.076;2022-07-29T03:21:38;23.80;39.30
46366;DHT22;32073;49.166;8.076;2022-07-29T03:25:39;23.70;39.30
46366;DHT22;32073;49.166;8.076;2022-07-29T03:29:40;23.70;39.40
46366;DHT22;32073;49.166;8.076;2022-07-29T03:33:40;23.70;39.50
46366;DHT22;32073;49.166;8.076;2022-07-29T03:37:41;23.60;39.50
46366;DHT22;32073;49.166;8.076;2022-07-29T03:41:44;23.50;39.60
46366;DHT22;32073;49.166;8.076;2022-07-29T03:45:50;23.60;40.00
46366;DHT22;32073;49.166;8.076;2022-07-29T03:49:57;23.50;40.10
46366;DHT22;32073;49.166;8.076;2022-07-29T03:54:02;23.50;40.20
46366;DHT22;32073;49.166;8.076;2022-07-29T03:58:03;23.50;40.30
46366;DHT22;32073;49.166;8.076;2022-07-29T04:02:05;23.40;41.00
46366;DHT22;32073;49.166;8.076;2022-07-29T04:06:07;23.40;40.60
46366;DHT22;32073;49.166;8.076;2022-07-29T04:10:07;23.40;40.50
46366;DHT22;32073;49.166;8.076;2022-07-29T04:14:09;23.40;40.90
46366;DHT22;32073;49.166;8.076;2022-07-29T04:18:09;23.40;40.90
46366;DHT22;32073;49.166;8.076;2022-07-29T04:22:10;23.40;41.10
46366;DHT22;32073;49.166;8.076;2022-07-29T04:26:11;23.40;41.30
46366;DHT22;32073;49.166;8.076;2022-07-29T04:30:12;23.40;41.30
46366;DHT22;32073;49.166;8.076;2022-07-29T04:34:12;23.40;41.40
46366;DHT22;32073;49.166;8.076;2022-07-29T04:38:13;23.40;41.80
46366;DHT22;32073;49.166;8.076;2022-07-29T04:42:14;23.40;41.70
46366;DHT22;32073;49.166;8.076;2022-07-29T04:46:14;23.40;41.90
46366;DHT22;32073;49.166;8.076;2022-07-29T04:50:15;23.50;42.30
46366;DHT22;32073;49.166;8.076;2022-07-29T04:54:16;23.50;42.40
46366;DHT22;32073;49.166;8.076;2022-07-29T04:58:17;23.50;42.40
46366;DHT22;32073;49.166;8.076;2022-07-29T05:02:17;23.50;42.80
46366;DHT22;32073;49.166;8.076;2022-07-29T05:06:18;23.90;43.90
46366;DHT22;32073;49.166;8.076;2022-07-29T05:10:19;24.40;44.40
46366;DHT22;32073;49.166;8.076;2022-07-29T05:14:19;25.10;44.70
46366;DHT22;32073;49.166;8.076;2022-07-29T05:18:20;25.80;44.60
46366;DHT22;32073;49.166;8.076;2022-07-29T05:22:21;26.60;44.50
46366;DHT22;32073;49.166;8.076;2022-07-29T05:26:24;27.30;44.10
46366;DHT22;32073;49.166;8.076;2022-07-29T05:30:24;28.10;43.90
46366;DHT22;32073;49.166;8.076;2022-07-29T05:34:25;28.70;43.40
46366;DHT22;32073;49.166;8.076;2022-07-29T05:38:26;29.20;42.60
46366;DHT22;32073;49.166;8.076;2022-07-29T05:42:27;29.60;42.10
46366;DHT22;32073;49.166;8.076;2022-07-29T05:46:27;29.90;41.60
46366;DHT22;32073;49.166;8.076;2022-07-29T05:50:28;30.00;40.70
46366;DHT22;32073;49.166;8.076;2022-07-29T05:54:29;30.00;40.40
46366;DHT22;32073;49.166;8.076;2022-07-29T05:58:29;29.90;39.80
46366;DHT22;32073;49.166;8.076;2022-07-29T06:02:30;29.80;39.50
46366;DHT22;32073;49.166;8.076;2022-07-29T06:06:33;29.60;39.20
46366;DHT22;32073;49.166;8.076;2022-07-29T06:10:35;29.30;38.90
46366;DHT22;32073;49.166;8.076;2022-07-29T06:14:36;29.10;39.00
46366;DHT22;32073;49.166;8.076;2022-07-29T06:18:38;28.90;39.30
46366;DHT22;32073;49.166;8.076;2022-07-29T06:22:38;28.70;39.60
46366;DHT22;32073;49.166;8.076;2022-07-29T06:26:39;28.40;39.60
46366;DHT22;32073;49.166;8.076;2022-07-29T06:30:40;28.30;39.70
46366;DHT22;32073;49.166;8.076;2022-07-29T06:34:41;28.20;39.90
46366;DHT22;32073;49.166;8.076;2022-07-29T06:38:42;28.10;40.20
46366;DHT22;32073;49.166;8.076;2022-07-29T06:42:43;28.00;40.20
46366;DHT22;32073;49.166;8.076;2022-07-29T06:46:44;27.90;40.30
46366;DHT22;32073;49.166;8.076;2022-07-29T06:50:47;27.90;40.50
46366;DHT22;32073;49.166;8.076;2022-07-29T06:54:47;27.80;40.60
46366;DHT22;32073;49.166;8.076;2022-07-29T06:58:48;27.80;40.60
46366;DHT22;32073;49.166;8.076;2022-07-29T07:02:49;27.70;40.50
46366;DHT22;32073;49.166;8.076;2022-07-29T07:06:49;27.70;40.70
46366;DHT22;32073;49.166;8.076;2022-07-29T07:10:51;27.80;41.00
46366;DHT22;32073;49.166;8.076;2022-07-29T07:14:52;27.90;41.10
46366;DHT22;32073;49.166;8.076;2022-07-29T07:18:53;27.90;41.30
46366;DHT22;32073;49.166;8.076;2022-07-29T07:22:54;27.90;41.10
46366;DHT22;32073;49.166;8.076;2022-07-29T07:26:54;28.00;41.20
46366;DHT22;32073;49.166;8.076;2022-07-29T07:30:55;28.00;41.20
46366;DHT22;32073;49.166;8.076;2022-07-29T07:34:56;28.20;41.50
46366;DHT22;32073;49.166;8.076;2022-07-29T07:38:56;28.20;41.50
46366;DHT22;32073;49.166;8.076;2022-07-29T07:42:57;28.30;41.40
46366;DHT22;32073;49.166;8.076;2022-07-29T07:46:58;28.40;41.30
46366;DHT22;32073;49.166;8.076;2022-07-29T07:50:58;28.40;41.20
46366;DHT22;32073;49.166;8.076;2022-07-29T07:54:59;28.50;41.30
46366;DHT22;32073;49.166;8.076;2022-07-29T07:59:00;28.60;41.10
46366;DHT22;32073;49.166;8.076;2022-07-29T08:03:01;28.60;41.00
46366;DHT22;32073;49.166;8.076;2022-07-29T08:07:02;28.70;41.00
46366;DHT22;32073;49.166;8.076;2022-07-29T08:11:03;28.70;40.90
46366;DHT22;32073;49.166;8.076;2022-07-29T08:15:04;28.70;40.90
46366;DHT22;32073;49.166;8.076;2022-07-29T08:19:07;28.80;40.90
46366;DHT22;32073;49.166;8.076;2022-07-29T08:23:08;28.90;40.70
46366;DHT22;32073;49.166;8.076;2022-07-29T08:27:10;28.90;40.70
46366;DHT22;32073;49.166;8.076;2022-07-29T08:31:12;29.00;40.40
46366;DHT22;32073;49.166;8.076;2022-07-29T08:35:13;29.00;40.20
46366;DHT22;32073;49.166;8.076;2022-07-29T08:39:14;29.00;39.70
46366;DHT22;32073;49.166;8.076;2022-07-29T08:43:15;29.00;39.50
46366;DHT22;32073;49.166;8.076;2022-07-29T08:47:16;28.90;39.50
46366;DHT22;32073;49.166;8.076;2022-07-29T08:51:19;28.90;39.50
46366;DHT22;32073;49.166;8.076;2022-07-29T08:55:21;28.80;39.40
46366;DHT22;32073;49.166;8.076;2022-07-29T08:59:23;28.90;39.50
46366;DHT22;32073;49.166;8.076;2022-07-29T09:03:30;29.00;39.50
46366;DHT22;32073;49.166;8.076;2022-07-29T09:07:32;29.00;39.30
46366;DHT22;32073;49.166;8.076;2022-07-29T09:11:33;29.10;39.00
46366;DHT22;32073;49.166;8.076;2022-07-29T09:15:34;29.10;38.90
46366;DHT22;32073;49.166;8.076;2022-07-29T09:19:36;29.10;39.00
46366;DHT22;32073;49.166;8.076;2022-07-29T09:23:37;29.10;39.00
46366;DHT22;32073;49.166;8.076;2022-07-29T09:27:39;29.20;39.00
46366;DHT22;32073;49.166;8.076;2022-07-29T09:31:46;29.30;38.80
46366;DHT22;32073;49.166;8.076;2022-07-29T09:36:04;29.30;38.50
46366;DHT22;32073;49.166;8.076;2022-07-29T09:40:26;29.40;38.60
46366;DHT22;32073;49.166;8.076;2022-07-29T09:44:42;29.50;38.70
46366;DHT22;32073;49.166;8.076;2022-07-29T09:48:44;29.60;38.30
46366;DHT22;32073;49.166;8.076;2022-07-29T09:52:49;29.70;38.50
46366;DHT22;32073;49.166;8.076;2022-07-29T09:56:53;29.70;38.30
46366;DHT22;32073;49.166;8.076;2022-07-29T10:00:56;29.70;37.80
46366;DHT22;32073;49.166;8.076;2022-07-29T10:04:58;29.80;37.70
46366;DHT22;32073;49.166;8.076;2022-07-29T10:09:10;29.90;37.90
46366;DHT22;32073;49.166;8.076;2022-07-29T10:13:13;29.90;37.90
46366;DHT22;32073;49.166;8.076;2022-07-29T10:17:15;30.00;37.80
46366;DHT22;32073;49.166;8.076;2022-07-29T10:21:16;30.10;38.00
46366;DHT22;32073;49.166;8.076;2022-07-29T10:25:18;30.20;37.60
46366;DHT22;32073;49.166;8.076;2022-07-29T10:29:19;30.30;37.70
46366;DHT22;32073;49.166;8.076;2022-07-29T10:42:40;30.70;37.10
46366;DHT22;32073;49.166;8.076;2022-07-29T10:46:41;30.80;36.60
46366;DHT22;32073;49.166;8.076;2022-07-29T10:50:57;30.80;36.60
46366;DHT22;32073;49.166;8.076;2022-07-29T10:55:04;30.90;37.00
46366;DHT22;32073;49.166;8.076;2022-07-29T11:03:42;31.00;36.20
46366;DHT22;32073;49.166;8.076;2022-07-29T11:16:59;31.20;35.90
46366;DHT22;32073;49.166;8.076;2022-07-29T11:21:02;31.20;36.00
46366;DHT22;32073;49.166;8.076;2022-07-29T11:25:17;31.20;35.70
46366;DHT22;32073;49.166;8.076;2022-07-29T11:29:21;31.30;35.60
46366;DHT22;32073;49.166;8.076;2022-07-29T11:33:33;31.30;35.40
46366;DHT22;32073;49.166;8.076;2022-07-29T11:37:34;31.30;35.50
46366;DHT22;32073;49.166;8.076;2022-07-29T11:41:34;31.30;35.60
46366;DHT22;32073;49.166;8.076;2022-07-29T11:45:46;31.30;35.50
46366;DHT22;32073;49.166;8.076;2022-07-29T11:49:48;31.30;35.10
46366;DHT22;32073;49.166;8.076;2022-07-29T11:53:50;31.50;35.10
46366;DHT22;32073;49.166;8.076;2022-07-29T11:57:59;31.60;35.10
46366;DHT22;32073;49.166;8.076;2022-07-29T12:02:00;31.80;35.20
46366;DHT22;32073;49.166;8.076;2022-07-29T12:06:01;32.00;35.30
46366;DHT22;32073;49.166;8.076;2022-07-29T12:10:05;32.10;34.80
46366;DHT22;32073;49.166;8.076;2022-07-29T12:14:06;32.20;34.50
46366;DHT22;32073;49.166;8.076;2022-07-29T12:18:15;32.20;34.30
46366;DHT22;32073;49.166;8.076;2022-07-29T12:22:27;32.20;34.10
46366;DHT22;32073;49.166;8.076;2022-07-29T12:26:32;32.20;33.90
46366;DHT22;32073;49.166;8.076;2022-07-29T12:30:40;32.30;34.10
46366;DHT22;32073;49.166;8.076;2022-07-29T12:34:43;32.30;34.00
46366;DHT22;32073;49.166;8.076;2022-07-29T12:38:44;32.30;33.60
46366;DHT22;32073;49.166;8.076;2022-07-29T12:43:23;32.30;33.40
46366;DHT22;32073;49.166;8.076;2022-07-29T12:47:24;32.20;33.50
46366;DHT22;32073;49.166;8.076;2022-07-29T12:55:49;32.20;33.20
46366;DHT22;32073;49.166;8.076;2022-07-29T13:00:09;32.20;33.00
46366;DHT22;32073;49.166;8.076;2022-07-29T13:04:24;32.10;32.60
46366;DHT22;32073;49.166;8.076;2022-07-29T13:08:29;32.20;33.00
46366;DHT22;32073;49.166;8.076;2022-07-29T13:12:29;32.10;32.90
46366;DHT22;32073;49.166;8.076;2022-07-29T13:16:30;32.10;33.50
46366;DHT22;32073;49.166;8.076;2022-07-29T13:20:31;32.10;32.70
46366;DHT22;32073;49.166;8.076;2022-07-29T13:24:33;32.00;32.60
46366;DHT22;32073;49.166;8.076;2022-07-29T13:28:34;32.00;32.40
46366;DHT22;32073;49.166;8.076;2022-07-29T13:32:35;32.00;32.50
46366;DHT22;32073;49.166;8.076;2022-07-29T13:36:39;32.00;32.40
46366;DHT22;32073;49.166;8.076;2022-07-29T13:40:40;32.10;32.30
46366;DHT22;32073;49.166;8.076;2022-07-29T13:44:41;32.20;32.30
46366;DHT22;32073;49.166;8.076;2022-07-29T13:48:42;32.20;32.20
46366;DHT22;32073;49.166;8.076;2022-07-29T13:52:43;32.30;31.90
46366;DHT22;32073;49.166;8.076;2022-07-29T13:56:43;32.40;31.70
46366;DHT22;32073;49.166;8.076;2022-07-29T14:00:44;32.40;31.30
46366;DHT22;32073;49.166;8.076;2022-07-29T14:04:46;32.40;31.40
46366;DHT22;32073;49.166;8.076;2022-07-29T14:08:47;32.50;31.40
46366;DHT22;32073;49.166;8.076;2022-07-29T14:12:48;32.60;31.20
46366;DHT22;32073;49.166;8.076;2022-07-29T14:16:49;32.60;31.50
46366;DHT22;32073;49.166;8.076;2022-07-29T14:20:49;32.70;31.10
46366;DHT22;32073;49.166;8.076;2022-07-29T14:24:51;32.80;30.90
46366;DHT22;32073;49.166;8.076;2022-07-29T14:28:52;32.90;31.10
46366;DHT22;32073;49.166;8.076;2022-07-29T14:32:53;33.00;30.70
46366;DHT22;32073;49.166;8.076;2022-07-29T14:36:53;33.10;30.60
46366;DHT22;32073;49.166;8.076;2022-07-29T14:40:55;33.20;30.30
46366;DHT22;32073;49.166;8.076;2022-07-29T14:44:56;33.20;30.10
46366;DHT22;32073;49.166;8.076;2022-07-29T14:48:57;33.20;30.00
46366;DHT22;32073;49.166;8.076;2022-07-29T14:52:58;33.20;29.80
46366;DHT22;32073;49.166;8.076;2022-07-29T14:56:59;33.20;29.70
46366;DHT22;32073;49.166;8.076;2022-07-29T15:01:00;33.10;29.60
46366;DHT22;32073;49.166;8.076;2022-07-29T15:05:01;33.00;29.40
46366;DHT22;32073;49.166;8.076;2022-07-29T15:09:02;32.90;29.50
46366;DHT22;32073;49.166;8.076;2022-07-29T15:13:03;32.80;29.30
46366;DHT22;32073;49.166;8.076;2022-07-29T15:17:03;32.70;29.40
46366;DHT22;32073;49.166;8.076;2022-07-29T15:21:05;32.70;29.30
46366;DHT22;32073;49.166;8.076;2022-07-29T15:25:07;32.60;29.30
46366;DHT22;32073;49.166;8.076;2022-07-29T15:29:08;32.60;29.90
46366;DHT22;32073;49.166;8.076;2022-07-29T15:33:09;32.60;29.40
46366;DHT22;32073;49.166;8.076;2022-07-29T15:37:10;32.60;29.10
46366;DHT22;32073;49.166;8.076;2022-07-29T15:41:14;32.60;29.00
46366;DHT22;32073;49.166;8.076;2022-07-29T15:45:15;32.60;29.10
46366;DHT22;32073;49.166;8.076;2022-07-29T15:49:16;32.60;28.70
46366;DHT22;32073;49.166;8.076;2022-07-29T15:53:16;32.60;27.90
46366;DHT22;32073;49.166;8.076;2022-07-29T15:57:17;32.60;28.50
46366;DHT22;32073;49.166;8.076;2022-07-29T16:01:18;32.50;27.70
46366;DHT22;32073;49.166;8.076;2022-07-29T16:05:19;32.50;27.50
46366;DHT22;32073;49.166;8.076;2022-07-29T16:09:19;32.40;27.30
46366;DHT22;32073;49.166;8.076;2022-07-29T16:13:20;32.40;27.40
46366;DHT22;32073;49.166;8.076;2022-07-29T16:17:21;32.40;27.40
46366;DHT22;32073;49.166;8.076;2022-07-29T16:21:22;32.30;27.40
46366;DHT22;32073;49.166;8.076;2022-07-29T16:25:23;32.30;27.30
46366;DHT22;32073;49.166;8.076;2022-07-29T16:29:23;32.30;27.20
46366;DHT22;32073;49.166;8.076;2022-07-29T16:33:24;32.20;27.10
46366;DHT22;32073;49.166;8.076;2022-07-29T16:37:25;32.20;27.20
46366;DHT22;32073;49.166;8.076;2022-07-29T16:41:26;32.10;27.30
46366;DHT22;32073;49.166;8.076;2022-07-29T16:45:28;32.10;27.30
46366;DHT22;32073;49.166;8.076;2022-07-29T16:49:29;32.00;27.40
46366;DHT22;32073;49.166;8.076;2022-07-29T16:53:30;32.00;27.50
46366;DHT22;32073;49.166;8.076;2022-07-29T16:57:31;31.90;27.50
46366;DHT22;32073;49.166;8.076;2022-07-29T17:01:32;31.90;27.60
46366;DHT22;32073;49.166;8.076;2022-07-29T17:05:32;31.90;27.70
46366;DHT22;32073;49.166;8.076;2022-07-29T17:09:33;31.90;27.70
46366;DHT22;32073;49.166;8.076;2022-07-29T17:13:34;31.80;27.70
46366;DHT22;32073;49.166;8.076;2022-07-29T17:17:35;31.80;27.80
46366;DHT22;32073;49.166;8.076;2022-07-29T17:21:35;31.70;27.80
46366;DHT22;32073;49.166;8.076;2022-07-29T17:25:36;31.70;28.40
46366;DHT22;32073;49.166;8.076;2022-07-29T17:29:37;31.70;28.00
46366;DHT22;32073;49.166;8.076;2022-07-29T17:33:38;31.60;28.00
46366;DHT22;32073;49.166;8.076;2022-07-29T17:37:39;31.60;28.20
46366;DHT22;32073;49.166;8.076;2022-07-29T17:41:40;31.50;28.20
46366;DHT22;32073;49.166;8.076;2022-07-29T17:45:41;31.50;28.20
46366;DHT22;32073;49.166;8.076;2022-07-29T17:49:42;31.50;28.20
46366;DHT22;32073;49.166;8.076;2022-07-29T17:53:43;31.40;28.20
46366;DHT22;32073;49.166;8.076;2022-07-29T17:57:44;31.40;28.30
46366;DHT22;32073;49.166;8.076;2022-07-29T18:01:44;31.40;28.30
46366;DHT22;32073;49.166;8.076;2022-07-29T18:05:45;31.40;28.50
46366;DHT22;32073;49.166;8.076;2022-07-29T18:09:46;31.50;28.70
46366;DHT22;32073;49.166;8.076;2022-07-29T18:13:47;31.40;28.70
46366;DHT22;32073;49.166;8.076;2022-07-29T18:17:48;31.30;28.80
46366;DHT22;32073;49.166;8.076;2022-07-29T18:21:49;31.30;28.70
46366;DHT22;32073;49.166;8.076;2022-07-29T18:25:49;31.30;28.80
46366;DHT22;32073;49.166;8.076;2022-07-29T18:29:51;31.20;28.60
46366;DHT22;32073;49.166;8.076;2022-07-29T18:33:52;31.10;28.50
46366;DHT22;32073;49.166;8.076;2022-07-29T18:37:53;31.10;28.50
46366;DHT22;32073;49.166;8.076;2022-07-29T18:41:55;30.90;28.40
46366;DHT22;32073;49.166;8.076;2022-07-29T18:45:55;30.80;28.50
46366;DHT22;32073;49.166;8.076;2022-07-29T18:49:56;30.70;28.50
46366;DHT22;32073;49.166;8.076;2022-07-29T18:53:57;30.60;28.60
46366;DHT22;32073;49.166;8.076;2022-07-29T18:57:57;30.40;28.70
46366;DHT22;32073;49.166;8.076;2022-07-29T19:01:58;30.40;28.80
46366;DHT22;32073;49.166;8.076;2022-07-29T19:05:59;30.30;29.00
46366;DHT22;32073;49.166;8.076;2022-07-29T19:10:01;30.10;29.00
46366;DHT22;32073;49.166;8.076;2022-07-29T19:14:03;30.00;29.10
46366;DHT22;32073;49.166;8.076;2022-07-29T19:18:04;30.00;29.30
46366;DHT22;32073;49.166;8.076;2022-07-29T19:22:06;29.90;29.40
46366;DHT22;32073;49.166;8.076;2022-07-29T19:26:07;29.80;29.50
46366;DHT22;32073;49.166;8.076;2022-07-29T19:30:08;29.70;29.60
46366;DHT22;32073;49.166;8.076;2022-07-29T19:34:09;29.60;29.60
46366;DHT22;32073;49.166;8.076;2022-07-29T19:38:09;29.50;29.70
46366;DHT22;32073;49.166;8.076;2022-07-29T19:42:10;29.40;29.80
46366;DHT22;32073;49.166;8.076;2022-07-29T19:46:11;29.40;30.50
46366;DHT22;32073;49.166;8.076;2022-07-29T19:50:12;29.30;30.00
46366;DHT22;32073;49.166;8.076;2022-07-29T19:54:13;29.20;30.00
46366;DHT22;32073;49.166;8.076;2022-07-29T19:58:15;29.10;30.10
46366;DHT22;32073;49.166;8.076;2022-07-29T20:02:15;29.10;30.50
46366;DHT22;32073;49.166;8.076;2022-07-29T20:06:16;29.00;30.90
46366;DHT22;32073;49.166;8.076;2022-07-29T20:10:17;29.00;31.40
46366;DHT22;32073;49.166;8.076;2022-07-29T20:14:18;28.90;31.60
46366;DHT22;32073;49.166;8.076;2022-07-29T20:18:18;28.90;32.50
46366;DHT22;32073;49.166;8.076;2022-07-29T20:22:19;28.80;31.90
46366;DHT22;32073;49.166;8.076;2022-07-29T20:26:22;28.70;32.10
46366;DHT22;32073;49.166;8.076;2022-07-29T20:30:23;28.60;32.40
46366;DHT22;32073;49.166;8.076;2022-07-29T20:34:24;28.60;32.70
46366;DHT22;32073;49.166;8.076;2022-07-29T20:38:25;28.50;32.80
46366;DHT22;32073;49.166;8.076;2022-07-29T20:42:25;28.40;33.00
46366;DHT22;32073;49.166;8.076;2022-07-29T20:46:26;28.40;33.30
46366;DHT22;32073;49.166;8.076;2022-07-29T20:50:27;28.30;33.70
46366;DHT22;32073;49.166;8.076;2022-07-29T20:54:27;28.20;33.90
46366;DHT22;32073;49.166;8.076;2022-07-29T20:58:28;28.10;34.00
46366;DHT22;32073;49.166;8.076;2022-07-29T21:02:29;28.00;34.20
46366;DHT22;32073;49.166;8.076;2022-07-29T21:06:30;27.80;34.20
46366;DHT22;32073;49.166;8.076;2022-07-29T21:10:31;27.70;34.50
46366;DHT22;32073;49.166;8.076;2022-07-29T21:14:32;27.70;34.70
46366;DHT22;32073;49.166;8.076;2022-07-29T21:18:35;27.60;34.80
46366;DHT22;32073;49.166;8.076;2022-07-29T21:22:36;27.60;35.10
46366;DHT22;32073;49.166;8.076;2022-07-29T21:26:37;27.50;35.10
46366;DHT22;32073;49.166;8.076;2022-07-29T21:30:38;27.40;35.40
46366;DHT22;32073;49.166;8.076;2022-07-29T21:34:39;27.30;35.50
46366;DHT22;32073;49.166;8.076;2022-07-29T21:38:39;27.20;35.70
46366;DHT22;32073;49.166;8.076;2022-07-29T21:42:40;27.10;36.60
46366;DHT22;32073;49.166;8.076;2022-07-29T21:46:41;27.00;36.20
46366;DHT22;32073;49.166;8.076;2022-07-29T21:50:42;27.00;36.60
46366;DHT22;32073;49.166;8.076;2022-07-29T21:54:42;26.90;36.80
46366;DHT22;32073;49.166;8.076;2022-07-29T21:58:43;26.80;37.00
46366;DHT22;32073;49.166;8.076;2022-07-29T22:02:44;26.70;37.10
46366;DHT22;32073;49.166;8.076;2022-07-29T22:06:45;26.70;37.30
46366;DHT22;32073;49.166;8.076;2022-07-29T22:10:45;26.60;37.40
46366;DHT22;32073;49.166;8.076;2022-07-29T22:14:46;26.60;37.50
46366;DHT22;32073;49.166;8.076;2022-07-29T22:18:47;26.60;37.80
46366;DHT22;32073;49.166;8.076;2022-07-29T22:22:48;26.60;37.80
46366;DHT22;32073;49.166;8.076;2022-07-29T22:26:48;26.50;37.90
46366;DHT22;32073;49.166;8.076;2022-07-29T22:30:49;26.40;37.80
46366;DHT22;32073;49.166;8.076;2022-07-29T22:34:50;26.40;37.80
46366;DHT22;32073;49.166;8.076;2022-07-29T22:38:50;26.40;38.10
46366;DHT22;32073;49.166;8.076;2022-07-29T22:42:51;26.30;38.00
46366;DHT22;32073;49.166;8.076;2022-07-29T22:46:52;26.30;38.10
46366;DHT22;32073;49.166;8.076;2022-07-29T22:50:52;26.20;38.10
46366;DHT22;32073;49.166;8.076;2022-07-29T22:54:53;26.20;38.00
46366;DHT22;32073;49.166;8.076;2022-07-29T22:58:54;26.20;38.40
46366;DHT22;32073;49.166;8.076;2022-07-29T23:02:55;26.10;38.30
46366;DHT22;32073;49.166;8.076;2022-07-29T23:06:55;26.10;38.50
46366;DHT22;32073;49.166;8.076;2022-07-29T23:10:56;26.00;38.50
46366;DHT22;32073;49.166;8.076;2022-07-29T23:14:57;26.10;38.50
46366;DHT22;32073;49.166;8.076;2022-07-29T23:18:58;26.00;38.50
46366;DHT22;32073;49.166;8.076;2022-07-29T23:22:58;26.00;38.30
46366;DHT22;32073;49.166;8.076;2022-07-29T23:26:59;25.90;38.40
46366;DHT22;32073;49.166;8.076;2022-07-29T23:31:00;25.90;39.00
46366;DHT22;32073;49.166;8.076;2022-07-29T23:35:01;25.90;38.30
46366;DHT22;32073;49.166;8.076;2022-07-29T23:39:01;25.90;38.10
46366;DHT22;32073;49.166;8.076;2022-07-29T23:43:03;25.90;38.10
46366;DHT22;32073;49.166;8.076;2022-07-29T23:47:03;25.90;38.10
46366;DHT22;32073;49.166;8.076;2022-07-29T23:51:04;25.90;38.10
46366;DHT22;32073;49.166;8.076;2022-07-29T23:55:05;25.90;38.00
46366;DHT22;32073;49.166;8.076;2022-07-29T23:59:06;25.90;38.10
